createdAt,value
2019-04-03T00:00:12.333Z,78.68
2019-04-03T00:02:41.615Z,78.53
2019-04-03T00:05:10.972Z,79.39
2019-04-03T00:07:40.143Z,79.23
2019-04-03T00:10:09.672Z,79.50
2019-04-03T00:12:40.671Z,79.68
2019-04-03T00:15:09.851Z,79.75
2019-04-03T00:17:39.029Z,79.85
2019-04-03T00:20:08.543Z,79.33
2019-04-03T00:22:40.431Z,79.17
2019-04-03T00:25:09.579Z,78.70
2019-04-03T00:27:38.828Z,78.71
2019-04-03T00:30:09.095Z,78.42
2019-04-03T00:32:38.294Z,78.53
2019-04-03T00:35:08.148Z,78.56
2019-04-03T00:37:37.651Z,78.95
2019-04-03T00:40:07.507Z,78.36
2019-04-03T00:42:36.714Z,78.60
2019-04-03T00:45:07.035Z,78.45
2019-04-03T00:47:36.264Z,78.94
2019-04-03T00:50:07.658Z,79.84
2019-04-03T00:52:36.827Z,81.56
2019-04-03T00:55:06.567Z,82.13
2019-04-03T00:57:35.733Z,82.36
2019-04-03T01:00:13.828Z,82.70
2019-04-03T01:02:43.574Z,82.67
2019-04-03T01:05:13.260Z,81.92
2019-04-03T01:07:42.436Z,81.08
2019-04-03T01:10:11.845Z,80.38
2019-04-03T01:12:41.100Z,80.36
2019-04-03T01:15:10.634Z,80.42
2019-04-03T01:17:39.849Z,80.72
2019-04-03T01:20:09.988Z,80.79
2019-04-03T01:22:39.118Z,81.38
2019-04-03T01:25:09.253Z,81.35
2019-04-03T01:27:41.098Z,81.61
2019-04-03T01:30:09.471Z,80.98
2019-04-03T01:32:38.681Z,80.43
2019-04-03T01:35:09.162Z,80.83
2019-04-03T01:37:38.921Z,81.04
2019-04-03T01:40:08.114Z,80.62
2019-04-03T01:42:37.308Z,80.05
2019-04-03T01:45:06.920Z,81.39
2019-04-03T01:47:36.088Z,81.82
2019-04-03T01:50:06.674Z,82.42
2019-04-03T01:52:35.867Z,83.11
2019-04-03T01:55:06.212Z,83.39
2019-04-03T01:57:36.800Z,83.94
2019-04-03T02:00:08.182Z,84.00
2019-04-03T02:02:38.622Z,84.15
2019-04-03T02:05:08.865Z,84.55
2019-04-03T02:07:40.907Z,84.58
2019-04-03T02:10:19.152Z,85.12
2019-04-03T02:12:50.390Z,85.55
2019-04-03T02:15:21.176Z,85.71
2019-04-03T02:17:50.362Z,86.01
2019-04-03T02:20:19.679Z,86.03
2019-04-03T02:22:49.259Z,85.91
2019-04-03T02:25:18.453Z,85.66
2019-04-03T02:27:47.652Z,85.23
2019-04-03T02:30:17.253Z,85.14
2019-04-03T02:32:46.439Z,85.00
2019-04-03T02:35:15.871Z,85.03
2019-04-03T02:37:48.693Z,84.79
2019-04-03T02:40:15.992Z,84.95
2019-04-03T02:42:45.196Z,84.85
2019-04-03T02:45:15.414Z,84.52
2019-04-03T02:47:44.689Z,84.03
2019-04-03T02:50:16.911Z,84.26
2019-04-03T02:52:46.243Z,83.89
2019-04-03T02:55:15.756Z,83.62
2019-04-03T02:57:48.473Z,82.72
2019-04-03T03:00:16.065Z,82.50
2019-04-03T03:02:46.129Z,82.09
2019-04-03T03:05:15.523Z,81.41
2019-04-03T03:07:44.729Z,81.43
2019-04-03T03:10:14.087Z,82.29
2019-04-03T03:12:44.442Z,82.67
2019-04-03T03:15:13.696Z,82.49
2019-04-03T03:17:43.117Z,82.06
2019-04-03T03:20:12.867Z,81.92
2019-04-03T03:22:42.515Z,82.04
2019-04-03T03:25:12.468Z,81.82
2019-04-03T03:27:43.206Z,81.41
2019-04-03T03:30:33.414Z,81.29
2019-04-03T03:32:44.203Z,81.93
2019-04-03T03:35:18.228Z,82.59
2019-04-03T03:37:45.589Z,83.19
2019-04-03T03:40:16.183Z,83.27
2019-04-03T03:42:46.145Z,83.34
2019-04-03T03:45:19.502Z,83.46
2019-04-03T03:47:49.397Z,83.41
2019-04-03T03:50:24.147Z,83.90
2019-04-03T03:52:54.432Z,84.26
2019-04-03T03:55:25.665Z,84.41
2019-04-03T03:57:57.609Z,85.12
2019-04-03T04:00:26.856Z,85.32
2019-04-03T04:02:58.740Z,86.01
2019-04-03T04:05:28.389Z,86.38
2019-04-03T04:07:57.872Z,86.27
2019-04-03T04:10:28.800Z,86.83
2019-04-03T04:12:59.037Z,87.47
2019-04-03T04:15:30.229Z,87.88
2019-04-03T04:17:59.656Z,88.21
2019-04-03T04:20:29.358Z,88.41
2019-04-03T04:22:59.927Z,88.41
2019-04-03T04:25:30.582Z,88.45
2019-04-03T04:28:00.600Z,88.14
2019-04-03T04:30:30.514Z,87.95
2019-04-03T04:32:59.872Z,87.58
2019-04-03T04:35:29.176Z,87.77
2019-04-03T04:37:58.545Z,88.19
2019-04-03T04:40:30.350Z,88.40
2019-04-03T04:42:58.694Z,88.16
2019-04-03T04:45:28.127Z,87.58
2019-04-03T04:47:58.088Z,87.47
2019-04-03T04:50:27.462Z,87.37
2019-04-03T04:52:58.634Z,87.32
2019-04-03T04:55:30.408Z,87.15
2019-04-03T04:57:58.954Z,87.22
2019-04-03T05:00:29.906Z,87.59
2019-04-03T05:03:01.282Z,87.99
2019-04-03T05:05:31.082Z,88.08
2019-04-03T05:08:02.214Z,88.10
2019-04-03T05:10:49.729Z,88.26
2019-04-03T05:13:19.186Z,88.09
2019-04-03T05:15:48.524Z,88.02
2019-04-03T05:18:17.779Z,88.27
2019-04-03T05:20:47.072Z,87.96
2019-04-03T05:23:16.525Z,87.52
2019-04-03T05:25:45.853Z,86.95
2019-04-03T05:28:15.108Z,86.78
2019-04-03T05:30:44.334Z,86.46
2019-04-03T05:33:13.544Z,86.60
2019-04-03T05:35:45.323Z,86.92
2019-04-03T05:38:13.588Z,87.23
2019-04-03T05:40:42.788Z,87.44
2019-04-03T05:43:11.974Z,87.15
2019-04-03T05:45:42.235Z,87.39
2019-04-03T05:48:13.386Z,87.95
2019-04-03T05:50:42.447Z,87.98
2019-04-03T05:53:11.707Z,87.93
2019-04-03T05:55:41.464Z,88.11
2019-04-03T05:58:11.201Z,88.19
2019-04-03T06:00:40.397Z,88.19
2019-04-03T06:03:10.020Z,87.90
2019-04-03T06:05:39.212Z,87.62
2019-04-03T06:08:08.411Z,87.25
2019-04-03T06:10:37.701Z,86.95
2019-04-03T06:13:06.919Z,86.81
2019-04-03T06:15:36.368Z,86.27
2019-04-03T06:18:06.077Z,85.99
2019-04-03T06:20:35.321Z,86.01
2019-04-03T06:23:04.523Z,85.30
2019-04-03T06:25:33.783Z,84.53
2019-04-03T06:28:02.947Z,84.14
2019-04-03T06:30:33.230Z,83.66
2019-04-03T06:33:02.681Z,83.12
2019-04-03T06:35:34.377Z,82.19
2019-04-03T06:38:02.914Z,81.36
2019-04-03T06:40:33.650Z,80.91
2019-04-03T06:43:03.074Z,80.61
2019-04-03T06:45:32.221Z,80.37
2019-04-03T06:48:04.253Z,79.71
2019-04-03T06:50:32.252Z,79.23
2019-04-03T06:53:01.677Z,79.03
2019-04-03T06:55:31.232Z,79.06
2019-04-03T06:58:00.890Z,78.60
2019-04-03T07:00:30.249Z,77.52
2019-04-03T07:03:01.485Z,75.89
2019-04-03T07:05:31.987Z,72.64
2019-04-03T07:08:01.429Z,69.77
2019-04-03T07:10:31.995Z,65.95
2019-04-03T07:13:01.176Z,65.17
2019-04-03T07:15:30.498Z,66.79
2019-04-03T07:18:01.363Z,66.79
2019-04-03T07:20:30.825Z,68.61
2019-04-03T07:22:59.990Z,69.72
2019-04-03T07:25:29.260Z,70.95
2019-04-03T07:27:58.730Z,70.95
2019-04-03T07:30:27.928Z,74.45
2019-04-03T07:32:58.306Z,74.45
2019-04-03T07:35:27.651Z,75.94
2019-04-03T07:37:56.914Z,76.43
2019-04-03T07:40:26.077Z,75.45
2019-04-03T07:42:56.442Z,77.05
2019-04-03T07:45:26.041Z,77.22
2019-04-03T07:47:55.238Z,74.08
2019-04-03T07:50:24.476Z,76.18
2019-04-03T07:52:53.645Z,77.89
2019-04-03T07:55:24.229Z,78.28
2019-04-03T07:57:53.718Z,78.56
2019-04-03T08:00:23.454Z,79.43
2019-04-03T08:02:52.640Z,79.97
2019-04-03T08:05:22.214Z,79.86
2019-04-03T08:07:51.760Z,76.61
2019-04-03T08:10:20.967Z,75.14
2019-04-03T08:12:50.142Z,76.22
2019-04-03T08:15:19.345Z,77.45
2019-04-03T08:17:50.010Z,78.52
2019-04-03T08:20:20.237Z,78.28
2019-04-03T08:22:49.834Z,78.93
2019-04-03T08:25:19.002Z,81.24
2019-04-03T08:27:48.234Z,81.87
2019-04-03T08:30:17.888Z,81.86
2019-04-03T08:32:48.167Z,81.35
2019-04-03T08:35:22.137Z,80.78
2019-04-03T08:37:49.016Z,79.96
2019-04-03T08:40:20.686Z,80.14
2019-04-03T08:42:49.062Z,80.37
2019-04-03T08:45:20.961Z,78.78
2019-04-03T08:47:49.111Z,76.72
2019-04-03T08:50:18.441Z,75.36
2019-04-03T08:52:47.638Z,73.22
2019-04-03T08:55:17.135Z,72.18
2019-04-03T08:57:46.905Z,73.95
2019-04-03T09:00:18.413Z,71.65
2019-04-03T09:02:47.622Z,70.33
2019-04-03T09:05:19.432Z,70.09
2019-04-03T09:07:47.914Z,71.22
2019-04-03T09:10:17.934Z,72.10
2019-04-03T09:12:47.173Z,70.73
2019-04-03T09:15:16.946Z,72.31
2019-04-03T09:17:46.093Z,72.54
2019-04-03T09:20:16.362Z,73.20
2019-04-03T09:22:45.812Z,72.53
2019-04-03T09:25:15.392Z,71.09
2019-04-03T09:27:44.612Z,71.81
2019-04-03T09:30:16.155Z,72.46
2019-04-03T09:32:45.520Z,72.14
2019-04-03T09:35:15.157Z,72.92
2019-04-03T09:37:46.052Z,72.86
2019-04-03T09:40:17.227Z,73.23
2019-04-03T09:42:46.326Z,74.73
2019-04-03T09:45:15.859Z,76.10
2019-04-03T09:47:45.067Z,76.79
2019-04-03T09:50:14.963Z,77.25
2019-04-03T09:52:49.095Z,77.17
2019-04-03T09:55:15.533Z,78.39
2019-04-03T09:57:44.692Z,78.92
2019-04-03T10:00:14.742Z,77.63
2019-04-03T10:02:44.288Z,79.13
2019-04-03T10:05:15.241Z,78.55
2019-04-03T10:07:44.485Z,78.89
2019-04-03T10:10:16.521Z,77.89
2019-04-03T10:12:47.952Z,77.06
2019-04-03T10:15:18.905Z,75.17
2019-04-03T10:17:48.754Z,74.30
2019-04-03T10:20:19.071Z,73.65
2019-04-03T10:22:48.587Z,72.59
2019-04-03T10:25:19.813Z,73.70
2019-04-03T10:27:49.992Z,73.84
2019-04-03T10:30:22.131Z,74.58
2019-04-03T10:32:52.581Z,75.76
2019-04-03T10:35:22.744Z,74.16
2019-04-03T10:37:51.954Z,73.94
2019-04-03T10:40:23.644Z,73.55
2019-04-03T10:42:52.298Z,70.30
2019-04-03T10:45:21.614Z,70.81
2019-04-03T10:47:50.781Z,70.99
2019-04-03T10:50:20.128Z,69.98
2019-04-03T10:52:49.410Z,69.65
2019-04-03T10:55:19.537Z,70.04
2019-04-03T10:57:48.708Z,66.83
2019-04-03T11:00:18.796Z,65.13
2019-04-03T11:02:48.153Z,65.47
2019-04-03T11:05:17.674Z,64.94
2019-04-03T11:07:46.977Z,65.62
2019-04-03T11:10:16.830Z,65.51
2019-04-03T11:12:46.008Z,65.82
2019-04-03T11:15:17.006Z,65.47
2019-04-03T11:17:48.498Z,66.10
2019-04-03T11:20:17.348Z,66.88
2019-04-03T11:22:48.311Z,69.09
2019-04-03T11:25:17.459Z,69.17
2019-04-03T11:27:46.623Z,69.11
2019-04-03T11:30:21.586Z,70.72
2019-04-03T11:32:48.255Z,71.82
2019-04-03T11:35:20.826Z,73.74
2019-04-03T11:37:48.517Z,75.52
2019-04-03T11:40:18.810Z,76.51
2019-04-03T11:42:49.075Z,77.38
2019-04-03T11:45:19.389Z,77.84
2019-04-03T11:47:48.542Z,77.74
2019-04-03T11:50:19.783Z,78.35
2019-04-03T11:52:51.278Z,78.07
2019-04-03T11:55:19.909Z,77.37
2019-04-03T11:57:49.891Z,76.05
2019-04-03T12:00:24.616Z,76.59
2019-04-03T12:02:53.806Z,76.59
2019-04-03T12:05:23.078Z,78.58
2019-04-03T12:07:52.270Z,77.68
2019-04-03T12:10:21.486Z,77.74
2019-04-03T12:12:51.618Z,77.74
2019-04-03T12:15:22.008Z,76.57
2019-04-03T12:17:51.859Z,75.02
2019-04-03T12:20:21.037Z,75.08
2019-04-03T12:22:50.217Z,75.39
2019-04-03T12:25:19.423Z,75.31
2019-04-03T12:27:48.885Z,74.22
2019-04-03T12:30:19.414Z,73.18
2019-04-03T12:32:50.181Z,71.28
2019-04-03T12:35:19.685Z,70.86
2019-04-03T12:37:50.189Z,71.61
2019-04-03T12:40:20.511Z,71.80
2019-04-03T12:42:52.317Z,71.33
2019-04-03T12:45:21.644Z,70.40
2019-04-03T12:47:51.029Z,70.52
2019-04-03T12:50:20.543Z,70.47
2019-04-03T12:52:50.704Z,70.50
2019-04-03T12:55:19.981Z,70.95
2019-04-03T12:57:49.520Z,66.50
2019-04-03T13:00:19.700Z,65.97
2019-04-03T13:02:51.260Z,65.22
2019-04-03T13:05:19.835Z,63.83
2019-04-03T13:07:48.983Z,63.32
2019-04-03T13:10:18.427Z,63.32
2019-04-03T13:12:48.128Z,62.64
2019-04-03T13:15:18.456Z,63.66
2019-04-03T13:17:47.846Z,63.06
2019-04-03T13:20:17.072Z,63.70
2019-04-03T13:22:46.235Z,64.49
2019-04-03T13:25:16.184Z,64.34
2019-04-03T13:27:45.401Z,63.58
2019-04-03T13:30:15.516Z,63.67
2019-04-03T13:32:56.775Z,62.97
2019-04-03T13:35:16.695Z,62.32
2019-04-03T13:37:46.355Z,62.08
2019-04-03T13:40:15.770Z,61.80
2019-04-03T13:42:47.561Z,61.64
2019-04-03T13:45:16.039Z,60.92
2019-04-03T13:47:47.048Z,60.54
2019-04-03T13:50:18.434Z,59.56
2019-04-03T13:52:49.796Z,59.90
2019-04-03T13:55:18.760Z,60.03
2019-04-03T13:57:49.470Z,60.98
2019-04-03T14:00:22.628Z,60.34
2019-04-03T14:02:49.989Z,61.01
2019-04-03T14:05:19.189Z,60.38
2019-04-03T14:07:48.373Z,59.96
2019-04-03T14:10:17.608Z,60.01
2019-04-03T14:12:48.973Z,60.80
2019-04-03T14:15:20.324Z,61.21
2019-04-03T14:17:56.409Z,61.91
2019-04-03T14:20:23.758Z,63.29
2019-04-03T14:22:52.560Z,64.11
2019-04-03T14:25:23.445Z,64.85
2019-04-03T14:27:52.632Z,64.09
2019-04-03T14:30:21.816Z,61.73
2019-04-03T14:32:53.411Z,61.54
2019-04-03T14:35:45.535Z,61.16
2019-04-03T14:37:52.736Z,61.02
2019-04-03T14:40:21.895Z,61.30
2019-04-03T14:42:53.014Z,61.55
2019-04-03T14:45:22.201Z,59.35
2019-04-03T14:47:54.227Z,60.35
2019-04-03T14:50:23.582Z,60.66
2019-04-03T14:52:52.758Z,60.62
2019-04-03T14:55:23.534Z,58.64
2019-04-03T14:57:55.484Z,58.64
2019-04-03T15:00:28.896Z,58.99
2019-04-03T15:02:56.173Z,57.73
2019-04-03T15:05:26.818Z,57.73
2019-04-03T15:07:56.106Z,58.32
2019-04-03T15:10:25.249Z,58.20
2019-04-03T15:12:54.712Z,56.37
2019-04-03T15:15:24.785Z,56.37
2019-04-03T15:17:54.937Z,56.94
2019-04-03T15:20:24.220Z,57.35
2019-04-03T15:22:53.342Z,57.74
2019-04-03T15:25:22.637Z,57.76
2019-04-03T15:27:51.770Z,57.76
2019-04-03T15:30:21.640Z,55.80
2019-04-03T15:32:52.246Z,56.45
2019-04-03T15:35:22.215Z,56.79
2019-04-03T15:37:51.466Z,56.29
2019-04-03T15:40:20.816Z,56.29
2019-04-03T15:42:50.391Z,57.70
2019-04-03T15:45:20.047Z,57.70
2019-04-03T15:47:49.596Z,59.59
2019-04-03T15:50:18.910Z,60.79
2019-04-03T15:52:49.177Z,60.93
2019-04-03T15:55:23.802Z,62.04
2019-04-03T15:57:53.022Z,62.57
2019-04-03T16:00:23.600Z,62.54
2019-04-03T16:02:52.795Z,62.51
2019-04-03T16:05:22.229Z,62.11
2019-04-03T16:07:51.619Z,59.77
2019-04-03T16:10:23.225Z,58.80
2019-04-03T16:12:51.994Z,58.64
2019-04-03T16:15:22.751Z,57.96
2019-04-03T16:17:52.025Z,59.36
2019-04-03T16:20:21.374Z,58.57
2019-04-03T16:22:50.551Z,57.91
2019-04-03T16:25:20.077Z,58.03
2019-04-03T16:27:49.727Z,58.13
2019-04-03T16:30:19.744Z,58.32
2019-04-03T16:32:48.976Z,58.19
2019-04-03T16:35:18.371Z,58.83
2019-04-03T16:37:49.677Z,58.78
2019-04-03T16:40:37.818Z,58.57
2019-04-03T16:43:07.195Z,58.71
2019-04-03T16:45:37.731Z,58.14
2019-04-03T16:48:07.590Z,57.73
2019-04-03T16:50:36.918Z,58.07
2019-04-03T16:53:07.471Z,58.39
2019-04-03T16:55:39.200Z,58.49
2019-04-03T16:58:08.432Z,59.03
2019-04-03T17:00:38.540Z,59.31
2019-04-03T17:03:08.545Z,59.51
2019-04-03T17:05:37.715Z,59.72
2019-04-03T17:08:06.877Z,60.47
2019-04-03T17:10:36.044Z,60.86
2019-04-03T17:13:06.141Z,61.58
2019-04-03T17:15:35.880Z,62.21
2019-04-03T17:18:05.134Z,62.63
2019-04-03T17:20:34.378Z,63.12
2019-04-03T17:23:03.553Z,63.69
2019-04-03T17:25:45.799Z,63.94
2019-04-03T17:28:09.173Z,64.22
2019-04-03T17:30:35.533Z,64.62
2019-04-03T17:33:04.771Z,65.06
2019-04-03T17:35:33.990Z,65.85
2019-04-03T17:38:03.188Z,66.26
2019-04-03T17:40:32.361Z,67.07
2019-04-03T17:43:02.676Z,67.64
2019-04-03T17:45:31.853Z,68.06
2019-04-03T17:48:01.033Z,68.68
2019-04-03T17:50:30.312Z,68.91
2019-04-03T17:52:59.495Z,68.87
2019-04-03T17:55:28.646Z,69.07
2019-04-03T17:57:57.817Z,68.86
2019-04-03T18:00:28.344Z,68.70
2019-04-03T18:02:57.503Z,68.96
2019-04-03T18:05:26.691Z,68.61
2019-04-03T18:07:58.635Z,68.50
2019-04-03T18:10:26.719Z,68.42
2019-04-03T18:12:56.374Z,68.58
2019-04-03T18:15:27.179Z,68.45
2019-04-03T18:17:56.394Z,68.74
2019-04-03T18:20:25.594Z,69.07
2019-04-03T18:22:54.789Z,68.94
2019-04-03T18:25:23.973Z,69.40
2019-04-03T18:27:56.023Z,69.84
2019-04-03T18:30:24.183Z,69.83
2019-04-03T18:32:53.484Z,70.15
2019-04-03T18:35:25.434Z,70.06
2019-04-03T18:37:53.530Z,69.95
2019-04-03T18:40:22.711Z,70.26
2019-04-03T18:42:51.891Z,69.98
2019-04-03T18:45:25.622Z,69.70
2019-04-03T18:47:51.941Z,70.36
2019-04-03T18:50:21.255Z,72.90
2019-04-03T18:52:50.599Z,74.00
2019-04-03T18:55:19.804Z,74.30
2019-04-03T18:57:50.255Z,74.43
2019-04-03T19:00:21.008Z,73.76
2019-04-03T19:02:50.195Z,73.67
2019-04-03T19:05:19.424Z,74.49
2019-04-03T19:07:48.641Z,75.44
2019-04-03T19:10:18.554Z,75.39
2019-04-03T19:12:47.906Z,75.88
2019-04-03T19:15:17.169Z,76.62
2019-04-03T19:17:58.935Z,76.99
2019-04-03T19:20:18.191Z,77.13
2019-04-03T19:22:47.299Z,77.31
2019-04-03T19:25:16.493Z,76.20
2019-04-03T19:27:45.688Z,75.42
2019-04-03T19:30:16.914Z,76.27
2019-04-03T19:32:46.092Z,76.45
2019-04-03T19:35:15.253Z,78.15
2019-04-03T19:37:45.248Z,78.52
2019-04-03T19:40:14.778Z,78.32
2019-04-03T19:42:44.446Z,77.72
2019-04-03T19:45:14.059Z,77.29
2019-04-03T19:47:43.222Z,76.41
2019-04-03T19:50:13.144Z,76.77
2019-04-03T19:52:42.550Z,76.55
2019-04-03T19:55:11.803Z,76.84
2019-04-03T19:57:40.975Z,77.04
2019-04-03T20:00:11.494Z,76.57
2019-04-03T20:02:43.134Z,76.60
2019-04-03T20:05:11.605Z,77.29
2019-04-03T20:07:40.771Z,77.41
2019-04-03T20:10:10.903Z,77.68
2019-04-03T20:12:40.995Z,77.33
2019-04-03T20:15:10.305Z,76.45
2019-04-03T20:17:39.527Z,75.04
2019-04-03T20:20:09.133Z,74.10
2019-04-03T20:22:42.156Z,74.72
2019-04-03T20:25:09.612Z,75.60
2019-04-03T20:27:38.924Z,75.65
2019-04-03T20:30:08.914Z,75.60
2019-04-03T20:32:40.249Z,75.21
2019-04-03T20:35:09.326Z,75.13
2019-04-03T20:37:38.492Z,74.81
2019-04-03T20:40:08.104Z,74.86
2019-04-03T20:42:40.616Z,75.54
2019-04-03T20:45:08.883Z,76.17
2019-04-03T20:47:39.005Z,76.64
2019-04-03T20:50:09.474Z,76.67
2019-04-03T20:52:38.646Z,76.47
2019-04-03T20:55:08.507Z,76.24
2019-04-03T20:57:37.709Z,77.19
2019-04-03T21:00:12.142Z,77.47
2019-04-03T21:02:42.230Z,77.23
2019-04-03T21:05:11.561Z,76.98
2019-04-03T21:07:40.801Z,77.72
2019-04-03T21:10:10.232Z,77.26
2019-04-03T21:12:40.398Z,77.37
2019-04-03T21:15:13.385Z,77.15
2019-04-03T21:17:40.780Z,77.48
2019-04-03T21:20:10.304Z,77.55
2019-04-03T21:22:39.448Z,77.39
2019-04-03T21:25:09.395Z,77.58
2019-04-03T21:27:40.181Z,78.58
2019-04-03T21:30:11.263Z,78.96
2019-04-03T21:32:40.476Z,78.97
2019-04-03T21:35:09.715Z,79.25
2019-04-03T21:37:40.482Z,79.81
2019-04-03T21:40:10.329Z,79.91
2019-04-03T21:42:39.534Z,79.85
2019-04-03T21:45:08.777Z,80.09
2019-04-03T21:47:37.947Z,80.64
2019-04-03T21:50:07.654Z,80.19
2019-04-03T21:52:36.849Z,80.14
2019-04-03T21:55:07.839Z,80.31
2019-04-03T21:57:38.398Z,80.36
2019-04-03T22:00:13.004Z,80.60
2019-04-03T22:02:40.611Z,80.63
2019-04-03T22:05:10.828Z,80.66
2019-04-03T22:07:40.055Z,80.75
2019-04-03T22:10:09.818Z,80.59
2019-04-03T22:12:39.033Z,80.09
2019-04-03T22:15:08.762Z,80.31
2019-04-03T22:17:37.930Z,80.72
2019-04-03T22:20:07.348Z,80.26
2019-04-03T22:22:36.538Z,80.16
2019-04-03T22:25:08.539Z,80.10
2019-04-03T22:27:36.925Z,80.26
2019-04-03T22:30:06.756Z,80.77
2019-04-03T22:32:36.134Z,81.21
2019-04-03T22:35:06.755Z,81.41
2019-04-03T22:37:35.991Z,81.92
2019-04-03T22:40:06.022Z,82.18
2019-04-03T22:42:35.197Z,82.15
2019-04-03T22:45:05.238Z,81.91
2019-04-03T22:47:34.715Z,81.92
2019-04-03T22:50:05.583Z,81.72
2019-04-03T22:52:35.059Z,81.42
2019-04-03T22:55:05.872Z,81.03
2019-04-03T22:57:35.061Z,80.76
2019-04-03T23:00:06.711Z,80.97
2019-04-03T23:02:35.903Z,80.52
2019-04-03T23:05:06.751Z,80.35
2019-04-03T23:07:35.923Z,80.21
2019-04-03T23:10:06.670Z,79.78
2019-04-03T23:12:35.868Z,79.52
2019-04-03T23:15:08.519Z,79.58
2019-04-03T23:17:37.310Z,79.56
2019-04-03T23:20:06.742Z,80.07
2019-04-03T23:22:35.970Z,80.03
2019-04-03T23:25:06.534Z,80.41
2019-04-03T23:27:35.701Z,80.34
2019-04-03T23:30:09.941Z,80.30
2019-04-03T23:32:37.911Z,80.54
2019-04-03T23:35:07.241Z,81.11
2019-04-03T23:37:36.422Z,81.33
2019-04-03T23:40:06.747Z,81.65
2019-04-03T23:42:37.826Z,81.70
2019-04-03T23:45:08.467Z,82.16
2019-04-03T23:47:37.641Z,82.10
2019-04-03T23:50:10.152Z,82.00
2019-04-03T23:52:39.320Z,82.22
2019-04-03T23:55:08.807Z,82.25
2019-04-03T23:57:40.386Z,82.08
